Time;durP1;ratioP1;P1;durP2;ratioP2;P2;SDS_P1;SDS_P2;PMS_P1;PMS_P2;Temp;Humidity;BMP_temperature;BMP_pressure;BME280_temperature;BME280_humidity;BME280_pressure;Samples;Min_cycle;Max_cycle;Signal;HPM_P1;HPM_P2
2021/06/15 00:00:16;;;;;;;6.88;1.55;;;;;;;;;;10262562;28;20064;-66
2021/06/15 00:05:14;;;;;;;7.47;1.50;;;;;;;;;;10263230;28;20452;-65
2021/06/15 00:10:14;;;;;;;11.18;2.05;;;;;;;;;;10271907;28;20376;-65
2021/06/15 00:15:14;;;;;;;4.63;1.48;;;;;;;;;;10300037;28;20033;-65
2021/06/15 00:20:11;;;;;;;9.13;1.42;;;;;;;;;;10271929;28;20056;-65
2021/06/15 00:25:09;;;;;;;6.53;1.38;;;;;;;;;;10286857;28;20034;-65
2021/06/15 00:30:09;;;;;;;10.60;1.90;;;;;;;;;;10291406;28;20026;-65
2021/06/15 00:35:07;;;;;;;7.35;1.23;;;;;;;;;;10288436;28;20025;-65
2021/06/15 00:40:05;;;;;;;5.07;1.10;;;;;;;;;;10289101;28;20452;-65
2021/06/15 00:45:07;;;;;;;7.80;1.83;;;;;;;;;;10252410;28;20038;-65
2021/06/15 00:50:05;;;;;;;4.93;1.13;;;;;;;;;;10294154;28;20511;-65
2021/06/15 00:55:03;;;;;;;6.65;1.50;;;;;;;;;;10297823;28;20457;-65
2021/06/15 01:00:03;;;;;;;5.60;1.67;;;;;;;;;;10288849;28;20087;-65
2021/06/15 01:05:01;;;;;;;4.47;1.10;;;;;;;;;;10298132;28;20029;-65
2021/06/15 01:10:01;;;;;;;6.20;1.53;;;;;;;;;;10305737;28;20309;-65
2021/06/15 01:15:07;;;;;;;5.30;1.10;;;;;;;;;;10293142;28;20284;-65
2021/06/15 01:20:18;;;;;;;8.00;1.35;;;;;;;;;;10300523;28;20021;-65
2021/06/15 01:25:34;;;;;;;6.05;1.70;;;;;;;;;;10304287;28;20140;-65
2021/06/15 01:30:36;;;;;;;4.63;1.25;;;;;;;;;;10294339;28;20042;-66
2021/06/15 01:35:34;;;;;;;7.35;1.63;;;;;;;;;;10291143;28;20040;-66
2021/06/15 01:40:41;;;;;;;5.68;1.10;;;;;;;;;;10289641;28;20029;-65
2021/06/15 01:45:46;;;;;;;4.03;1.00;;;;;;;;;;10303588;28;20042;-65
2021/06/15 01:50:45;;;;;;;7.75;1.33;;;;;;;;;;10295498;28;20044;-65
2021/06/15 01:55:51;;;;;;;5.65;1.38;;;;;;;;;;10294607;28;20096;-65
2021/06/15 02:00:51;;;;;;;6.25;1.25;;;;;;;;;;10286120;28;20041;-65
2021/06/15 02:05:52;;;;;;;7.32;1.33;;;;;;;;;;10286605;28;20403;-65
2021/06/15 02:10:51;;;;;;;5.70;1.20;;;;;;;;;;10294759;28;20033;-65
2021/06/15 02:16:15;;;;;;;6.70;1.40;;;;;;;;;;10308805;28;20159;-65
2021/06/15 02:21:44;;;;;;;4.10;1.00;;;;;;;;;;10287159;28;20064;-65
2021/06/15 02:26:42;;;;;;;5.68;1.10;;;;;;;;;;10294920;28;20025;-65
2021/06/15 02:31:52;;;;;;;5.80;1.00;;;;;;;;;;10284631;28;21605;-64
2021/06/15 02:36:51;;;;;;;7.50;1.20;;;;;;;;;;10319441;28;20537;-64
2021/06/15 02:41:51;;;;;;;8.75;1.20;;;;;;;;;;10312544;28;20026;-65
2021/06/15 02:46:50;;;;;;;7.10;1.15;;;;;;;;;;10326627;28;20033;-65
2021/06/15 02:51:53;;;;;;;6.00;1.20;;;;;;;;;;10330763;28;20025;-65
2021/06/15 02:56:53;;;;;;;7.25;1.48;;;;;;;;;;10317377;28;20037;-65
2021/06/15 03:01:51;;;;;;;6.13;1.27;;;;;;;;;;10284856;28;20379;-65
2021/06/15 03:06:53;;;;;;;6.43;1.33;;;;;;;;;;10284418;28;20037;-65
2021/06/15 03:12:05;;;;;;;5.43;1.23;;;;;;;;;;10301626;28;20049;-66
2021/06/15 03:17:06;;;;;;;5.80;1.23;;;;;;;;;;10300115;28;20174;-65
2021/06/15 03:22:09;;;;;;;4.47;1.20;;;;;;;;;;10279568;28;20513;-65
2021/06/15 03:27:10;;;;;;;3.92;0.82;;;;;;;;;;10283892;28;20061;-65
2021/06/15 03:32:19;;;;;;;5.32;1.15;;;;;;;;;;10268733;28;20041;-65
2021/06/15 03:37:20;;;;;;;4.38;1.10;;;;;;;;;;10302237;28;20037;-65
2021/06/15 03:42:29;;;;;;;7.35;1.38;;;;;;;;;;10315716;28;20125;-64
2021/06/15 03:47:27;;;;;;;7.82;1.30;;;;;;;;;;10281517;28;20120;-65
2021/06/15 03:52:33;;;;;;;5.80;1.35;;;;;;;;;;10315979;28;20503;-65
2021/06/15 03:57:32;;;;;;;3.30;0.90;;;;;;;;;;10298784;28;20045;-65
2021/06/15 04:02:31;;;;;;;;;;;;;;;;;;10283850;28;20535;-65
2021/06/15 04:07:29;;;;;;;;;;;;;;;;;;10282996;28;19943;-65
2021/06/15 04:12:27;;;;;;;4.95;1.05;;;;;;;;;;10282352;28;20111;-65
2021/06/15 04:17:26;;;;;;;4.45;1.35;;;;;;;;;;10253818;28;20034;-66
2021/06/15 04:22:28;;;;;;;7.15;1.15;;;;;;;;;;10258911;28;20033;-66
2021/06/15 04:27:26;;;;;;;4.15;0.88;;;;;;;;;;10275989;28;20110;-66
2021/06/15 04:32:31;;;;;;;6.35;1.35;;;;;;;;;;10276445;28;20034;-66
2021/06/15 04:37:29;;;;;;;4.78;1.40;;;;;;;;;;10286776;28;20045;-65
2021/06/15 04:42:39;;;;;;;4.28;1.08;;;;;;;;;;10278302;28;20025;-65
2021/06/15 04:47:39;;;;;;;4.32;1.17;;;;;;;;;;10280357;28;20121;-65
2021/06/15 04:52:37;;;;;;;5.97;1.27;;;;;;;;;;10306151;28;20388;-66
2021/06/15 04:57:39;;;;;;;6.13;1.52;;;;;;;;;;10316749;28;20182;-67
2021/06/15 05:02:38;;;;;;;7.25;1.27;;;;;;;;;;10287964;28;20392;-65
2021/06/15 05:07:36;;;;;;;4.13;1.17;;;;;;;;;;10315374;28;20389;-65
2021/06/15 05:12:38;;;;;;;7.60;1.47;;;;;;;;;;10334863;28;20040;-66
2021/06/15 05:17:36;;;;;;;4.38;1.25;;;;;;;;;;10326831;28;20495;-66
2021/06/15 05:22:38;;;;;;;6.50;1.20;;;;;;;;;;10307309;28;20025;-66
2021/06/15 05:27:35;;;;;;;6.82;1.40;;;;;;;;;;10286432;28;20033;-67
2021/06/15 05:32:32;;;;;;;11.17;1.97;;;;;;;;;;10272425;28;20025;-66
2021/06/15 05:37:30;;;;;;;7.67;1.20;;;;;;;;;;10284997;28;20436;-67
2021/06/15 05:42:27;;;;;;;5.57;1.47;;;;;;;;;;10265821;28;20194;-66
2021/06/15 05:47:25;;;;;;;3.80;1.00;;;;;;;;;;10285846;28;20042;-64
2021/06/15 05:52:23;;;;;;;5.63;1.17;;;;;;;;;;10303187;28;20037;-65
2021/06/15 05:57:20;;;;;;;4.43;1.43;;;;;;;;;;10306810;28;20025;-65
2021/06/15 06:02:17;;;;;;;3.87;0.90;;;;;;;;;;10337138;28;20031;-65
2021/06/15 06:12:31;;;;;;;5.53;1.45;;;;;;;;;;10312692;28;20116;-65
2021/06/15 06:17:28;;;;;;;6.93;1.40;;;;;;;;;;10334556;28;20128;-65
2021/06/15 06:22:26;;;;;;;8.00;1.40;;;;;;;;;;10293989;28;20021;-65
2021/06/15 06:27:25;;;;;;;5.55;1.20;;;;;;;;;;10318697;28;20036;-65
2021/06/15 06:32:23;;;;;;;4.47;1.10;;;;;;;;;;10317915;28;20036;-66
2021/06/15 06:37:20;;;;;;;1.20;0.90;;;;;;;;;;10328703;28;20043;-65
2021/06/15 06:42:19;;;;;;;4.27;1.00;;;;;;;;;;10333735;28;20033;-65
2021/06/15 06:47:16;;;;;;;4.10;1.15;;;;;;;;;;10311443;28;20029;-65
2021/06/15 06:52:14;;;;;;;5.00;1.35;;;;;;;;;;10341647;28;20032;-65
2021/06/15 06:57:11;;;;;;;7.87;1.47;;;;;;;;;;10337085;28;20072;-65
2021/06/15 07:02:09;;;;;;;8.73;1.50;;;;;;;;;;10315932;28;20029;-65
2021/06/15 07:07:07;;;;;;;6.23;1.73;;;;;;;;;;10325277;28;20040;-65
2021/06/15 07:12:05;;;;;;;5.45;1.30;;;;;;;;;;10325475;28;20053;-65
2021/06/15 07:17:03;;;;;;;5.57;1.83;;;;;;;;;;10292186;28;20048;-65
2021/06/15 07:22:00;;;;;;;7.77;1.80;;;;;;;;;;10327948;28;20441;-65
2021/06/15 07:26:58;;;;;;;6.40;1.60;;;;;;;;;;10320870;28;20037;-65
2021/06/15 07:31:56;;;;;;;6.00;1.37;;;;;;;;;;10329872;28;20029;-65
2021/06/15 07:36:53;;;;;;;5.43;1.23;;;;;;;;;;10320500;28;20037;-66
2021/06/15 07:41:51;;;;;;;9.17;1.77;;;;;;;;;;10321695;28;20029;-66
2021/06/15 07:46:48;;;;;;;7.53;1.60;;;;;;;;;;10321569;28;20520;-66
2021/06/15 07:51:46;;;;;;;5.68;1.35;;;;;;;;;;10306893;28;20263;-66
2021/06/15 07:56:43;;;;;;;;;;;;;;;;;;10314886;28;20059;-66
2021/06/15 08:01:41;;;;;;;6.22;1.38;;;;;;;;;;10326796;28;19943;-66
2021/06/15 08:06:38;;;;;;;;;;;;;;;;;;10308977;28;20346;-67
2021/06/15 08:11:35;;;;;;;4.60;1.37;;;;;;;;;;10287443;28;19913;-66
2021/06/15 08:16:33;;;;;;;;;;;;;;;;;;10265366;28;20480;-65
2021/06/15 08:21:31;;;;;;;5.30;1.00;;;;;;;;;;10275648;28;19917;-66
2021/06/15 08:26:28;;;;;;;5.63;1.17;;;;;;;;;;10297197;28;20507;-66
2021/06/15 08:31:25;;;;;;;5.15;1.40;;;;;;;;;;10259895;28;20129;-66
2021/06/15 08:36:23;;;;;;;6.37;1.53;;;;;;;;;;10277403;28;20083;-66
2021/06/15 08:41:21;;;;;;;5.57;1.40;;;;;;;;;;10285538;28;20353;-67
2021/06/15 08:46:19;;;;;;;5.93;1.15;;;;;;;;;;10279481;28;21090;-67
2021/06/15 08:51:17;;;;;;;2.88;1.10;;;;;;;;;;10278566;28;20092;-67
2021/06/15 08:56:21;;;;;;;5.45;1.10;;;;;;;;;;10266426;28;20550;-67
2021/06/15 09:01:18;;;;;;;3.40;1.15;;;;;;;;;;10281200;28;20045;-67
2021/06/15 09:06:16;;;;;;;4.93;1.10;;;;;;;;;;10287252;28;20037;-65
2021/06/15 09:11:13;;;;;;;4.03;1.27;;;;;;;;;;10298167;28;20781;-65
2021/06/15 09:16:16;;;;;;;3.92;1.27;;;;;;;;;;10288439;28;20040;-66
2021/06/15 09:21:29;;;;;;;5.65;1.80;;;;;;;;;;10289359;28;20052;-67
2021/06/15 09:26:26;;;;;;;4.05;1.48;;;;;;;;;;10293021;28;20041;-67
2021/06/15 09:31:23;;;;;;;3.50;1.00;;;;;;;;;;10270318;28;20038;-66
2021/06/15 09:36:24;;;;;;;3.70;1.10;;;;;;;;;;10279084;28;20278;-68
2021/06/15 09:41:38;;;;;;;4.88;1.23;;;;;;;;;;10271750;28;20685;-66
2021/06/15 09:46:41;;;;;;;6.97;1.30;;;;;;;;;;10264218;28;20037;-66
2021/06/15 09:51:39;;;;;;;5.43;1.40;;;;;;;;;;10289591;28;20126;-67
2021/06/15 09:56:39;;;;;;;5.55;1.50;;;;;;;;;;10272469;28;20041;-68
2021/06/15 10:01:38;;;;;;;4.80;1.10;;;;;;;;;;10267683;28;20113;-67
2021/06/15 10:06:36;;;;;;;4.05;1.20;;;;;;;;;;10284090;28;20041;-67
2021/06/15 10:11:34;;;;;;;6.75;1.60;;;;;;;;;;10289510;28;20129;-67
2021/06/15 10:16:32;;;;;;;4.63;1.15;;;;;;;;;;10296894;28;20118;-68
2021/06/15 10:21:30;;;;;;;3.90;0.95;;;;;;;;;;10285969;28;20063;-66
2021/06/15 10:26:28;;;;;;;3.13;1.10;;;;;;;;;;10271097;28;20774;-68
2021/06/15 10:31:27;;;;;;;6.03;1.67;;;;;;;;;;10269602;28;20034;-67
2021/06/15 10:36:40;;;;;;;2.50;0.95;;;;;;;;;;10285047;28;20280;-68
2021/06/15 10:41:38;;;;;;;6.10;1.42;;;;;;;;;;10281017;28;20045;-66
2021/06/15 10:46:39;;;;;;;5.57;1.02;;;;;;;;;;10302208;28;20041;-66
2021/06/15 10:51:42;;;;;;;3.17;1.15;;;;;;;;;;10264828;28;20041;-66
2021/06/15 10:56:40;;;;;;;4.65;1.13;;;;;;;;;;10298566;28;20551;-66
2021/06/15 11:01:39;;;;;;;5.00;0.95;;;;;;;;;;10300285;28;20410;-66
2021/06/15 11:06:37;;;;;;;5.50;1.10;;;;;;;;;;10275796;28;20572;-66
2021/06/15 11:11:35;;;;;;;7.00;1.83;;;;;;;;;;10254113;28;20097;-66
2021/06/15 11:16:49;;;;;;;3.55;0.93;;;;;;;;;;10257966;28;20453;-66
2021/06/15 11:21:54;;;;;;;3.95;1.13;;;;;;;;;;10269356;28;20544;-66
2021/06/15 11:26:51;;;;;;;4.53;1.20;;;;;;;;;;10284610;28;20057;-66
2021/06/15 11:31:49;;;;;;;3.30;1.07;;;;;;;;;;10299315;28;20038;-67
2021/06/15 11:36:48;;;;;;;7.23;1.90;;;;;;;;;;10280692;28;20045;-67
2021/06/15 11:42:04;;;;;;;5.60;1.60;;;;;;;;;;10279681;28;20666;-67
2021/06/15 11:47:37;;;;;;;3.50;1.23;;;;;;;;;;10261208;28;20047;-67
2021/06/15 11:52:35;;;;;;;4.60;1.17;;;;;;;;;;10231030;28;20037;-67
2021/06/15 11:57:32;;;;;;;4.28;1.33;;;;;;;;;;10296141;28;20420;-67
2021/06/15 12:02:31;;;;;;;4.85;1.00;;;;;;;;;;10300342;28;20385;-67
2021/06/15 12:07:28;;;;;;;4.72;1.17;;;;;;;;;;10297631;28;20044;-66
2021/06/15 12:12:26;;;;;;;2.85;0.90;;;;;;;;;;10283973;28;20140;-67
2021/06/15 12:17:23;;;;;;;4.77;1.37;;;;;;;;;;10279116;28;20037;-67
2021/06/15 12:22:25;;;;;;;4.27;1.50;;;;;;;;;;10304652;28;20091;-67
2021/06/15 12:27:23;;;;;;;4.13;1.50;;;;;;;;;;10292389;28;20515;-67
2021/06/15 12:32:20;;;;;;;5.47;1.27;;;;;;;;;;10304699;28;20160;-67
2021/06/15 12:37:18;;;;;;;3.77;1.40;;;;;;;;;;10278591;28;20084;-67
2021/06/15 12:42:15;;;;;;;2.73;0.93;;;;;;;;;;10302672;28;20103;-67
2021/06/15 12:47:14;;;;;;;6.53;1.52;;;;;;;;;;10289568;28;20049;-65
2021/06/15 12:52:11;;;;;;;5.72;1.17;;;;;;;;;;10304172;28;20032;-64
2021/06/15 12:57:10;;;;;;;4.63;1.80;;;;;;;;;;10314542;28;20034;-66
2021/06/15 13:02:11;;;;;;;8.48;1.55;;;;;;;;;;10286117;28;20344;-66
2021/06/15 13:07:11;;;;;;;3.17;0.88;;;;;;;;;;10276377;28;20373;-66
2021/06/15 13:12:10;;;;;;;3.58;0.90;;;;;;;;;;10262103;28;20036;-66
2021/06/15 13:17:13;;;;;;;4.38;1.13;;;;;;;;;;10285212;28;20571;-67
2021/06/15 13:22:37;;;;;;;3.10;0.95;;;;;;;;;;10288859;28;20377;-67
2021/06/15 13:27:56;;;;;;;4.63;1.00;;;;;;;;;;10288937;28;21448;-66
2021/06/15 13:33:13;;;;;;;5.20;1.70;;;;;;;;;;10277262;28;20030;-66
2021/06/15 13:38:21;;;;;;;4.50;1.42;;;;;;;;;;10276885;28;20073;-67
2021/06/15 13:43:20;;;;;;;3.17;0.98;;;;;;;;;;10265258;28;20069;-67
2021/06/15 13:48:18;;;;;;;2.30;0.95;;;;;;;;;;10312090;28;20436;-66
2021/06/15 13:53:15;;;;;;;4.38;0.82;;;;;;;;;;10340880;28;20090;-66
2021/06/15 13:58:15;;;;;;;6.03;1.15;;;;;;;;;;10285974;28;20209;-66
2021/06/15 14:03:13;;;;;;;6.13;1.20;;;;;;;;;;10293210;28;20038;-66
2021/06/15 14:08:14;;;;;;;3.40;1.58;;;;;;;;;;10310923;28;20094;-66
2021/06/15 14:13:16;;;;;;;5.18;1.27;;;;;;;;;;10279420;28;20140;-67
2021/06/15 14:18:14;;;;;;;2.38;1.20;;;;;;;;;;10307414;28;20281;-67
2021/06/15 14:23:11;;;;;;;3.00;0.97;;;;;;;;;;10290280;28;20029;-67
2021/06/15 14:28:09;;;;;;;5.20;1.13;;;;;;;;;;10308592;28;20940;-67
2021/06/15 14:33:06;;;;;;;5.10;1.50;;;;;;;;;;10314598;28;20280;-67
2021/06/15 14:38:04;;;;;;;3.58;1.05;;;;;;;;;;10306794;28;20272;-68
2021/06/15 14:43:02;;;;;;;3.45;0.90;;;;;;;;;;10296187;28;20028;-68
2021/06/15 14:47:59;;;;;;;4.47;1.02;;;;;;;;;;10277099;28;20492;-68
2021/06/15 14:52:56;;;;;;;4.73;0.97;;;;;;;;;;10293607;28;20044;-67
2021/06/15 14:57:54;;;;;;;3.37;1.10;;;;;;;;;;10268477;28;20750;-68
2021/06/15 15:02:52;;;;;;;3.70;1.00;;;;;;;;;;10306585;28;20084;-67
2021/06/15 15:07:49;;;;;;;2.50;0.82;;;;;;;;;;10277137;28;20033;-68
2021/06/15 15:12:48;;;;;;;3.95;1.20;;;;;;;;;;10302636;28;20115;-68
2021/06/15 15:17:46;;;;;;;3.38;1.10;;;;;;;;;;10285636;28;20090;-67
2021/06/15 15:22:45;;;;;;;2.33;1.02;;;;;;;;;;10296043;28;20033;-68
2021/06/15 15:27:43;;;;;;;4.97;1.00;;;;;;;;;;10272827;28;20120;-68
2021/06/15 15:32:41;;;;;;;5.22;1.10;;;;;;;;;;10307369;28;20041;-66
2021/06/15 15:37:39;;;;;;;3.63;1.08;;;;;;;;;;10297785;28;20044;-66
2021/06/15 15:42:38;;;;;;;3.08;0.88;;;;;;;;;;10294477;28;20716;-66
2021/06/15 15:47:36;;;;;;;2.95;0.98;;;;;;;;;;10298303;28;20040;-67
2021/06/15 15:52:34;;;;;;;4.25;0.77;;;;;;;;;;10315242;28;20033;-65
2021/06/15 15:57:32;;;;;;;4.55;1.02;;;;;;;;;;10320831;28;20068;-66
2021/06/15 16:02:29;;;;;;;3.92;1.08;;;;;;;;;;10320231;28;20296;-66
2021/06/15 16:07:27;;;;;;;1.80;0.83;;;;;;;;;;10281111;28;20037;-66
2021/06/15 16:12:24;;;;;;;2.87;0.90;;;;;;;;;;10281228;28;20687;-66
2021/06/15 16:17:22;;;;;;;4.30;1.33;;;;;;;;;;10283992;28;20060;-67
2021/06/15 16:22:19;;;;;;;3.87;1.23;;;;;;;;;;10326382;28;20681;-66
2021/06/15 16:27:16;;;;;;;3.67;0.95;;;;;;;;;;10339769;28;20291;-66
2021/06/15 16:32:14;;;;;;;4.37;1.37;;;;;;;;;;10311984;28;20103;-67
2021/06/15 16:37:11;;;;;;;3.40;0.90;;;;;;;;;;10338655;28;20816;-66
2021/06/15 16:42:09;;;;;;;4.30;1.10;;;;;;;;;;10295236;28;20045;-67
2021/06/15 16:47:06;;;;;;;5.05;1.35;;;;;;;;;;10324948;28;20371;-67
2021/06/15 16:52:04;;;;;;;3.70;1.08;;;;;;;;;;10327084;28;20045;-66
2021/06/15 16:57:02;;;;;;;3.90;0.80;;;;;;;;;;10284189;28;20399;-66
2021/06/15 17:02:00;;;;;;;6.82;1.60;;;;;;;;;;10278901;28;20061;-66
2021/06/15 17:06:57;;;;;;;4.07;1.02;;;;;;;;;;10258583;28;20140;-66
2021/06/15 17:11:55;;;;;;;6.20;1.20;;;;;;;;;;10282174;28;20445;-66
2021/06/15 17:16:52;;;;;;;5.68;1.23;;;;;;;;;;10303120;28;20043;-66
2021/06/15 17:21:50;;;;;;;4.37;1.30;;;;;;;;;;10304780;28;20080;-66
2021/06/15 17:26:47;;;;;;;2.73;0.90;;;;;;;;;;10318179;28;20676;-66
2021/06/15 17:31:45;;;;;;;4.45;1.00;;;;;;;;;;10339238;28;20278;-66
2021/06/15 17:36:42;;;;;;;4.20;1.00;;;;;;;;;;10333042;28;20033;-66
2021/06/15 17:41:40;;;;;;;3.13;0.77;;;;;;;;;;10310426;28;20041;-67
2021/06/15 17:46:37;;;;;;;3.67;1.20;;;;;;;;;;10293596;28;20037;-66
2021/06/15 17:51:35;;;;;;;4.28;1.15;;;;;;;;;;10275962;28;20440;-66
2021/06/15 17:56:33;;;;;;;4.23;0.70;;;;;;;;;;10264269;28;20403;-65
2021/06/15 18:01:30;;;;;;;2.47;0.80;;;;;;;;;;10248046;28;20746;-66
2021/06/15 18:06:30;;;;;;;4.07;0.87;;;;;;;;;;10288177;28;20407;-66
2021/06/15 18:11:28;;;;;;;4.70;0.80;;;;;;;;;;10286519;28;20364;-66
2021/06/15 18:16:26;;;;;;;3.35;1.00;;;;;;;;;;10270051;28;20026;-66
2021/06/15 18:21:23;;;;;;;2.75;0.90;;;;;;;;;;10258560;28;20531;-67
2021/06/15 18:26:21;;;;;;;4.07;0.90;;;;;;;;;;10253451;28;20412;-66
2021/06/15 18:31:19;;;;;;;3.63;1.10;;;;;;;;;;10270962;28;20044;-67
2021/06/15 18:36:18;;;;;;;4.32;0.98;;;;;;;;;;10266257;28;20371;-67
2021/06/15 18:41:21;;;;;;;4.03;0.75;;;;;;;;;;10272515;28;20037;-66
2021/06/15 18:46:18;;;;;;;4.32;1.25;;;;;;;;;;10267294;28;20268;-66
2021/06/15 18:51:16;;;;;;;3.15;0.93;;;;;;;;;;10277946;28;20495;-66
2021/06/15 18:56:13;;;;;;;4.30;1.17;;;;;;;;;;10264398;28;20121;-66
2021/06/15 19:01:11;;;;;;;2.17;0.80;;;;;;;;;;10293647;28;20045;-66
2021/06/15 19:06:08;;;;;;;1.98;0.80;;;;;;;;;;10308547;28;20029;-66
2021/06/15 19:11:06;;;;;;;3.35;0.82;;;;;;;;;;10312968;28;20598;-66
2021/06/15 19:16:04;;;;;;;3.72;1.08;;;;;;;;;;10307572;28;20041;-66
2021/06/15 19:21:01;;;;;;;4.68;1.30;;;;;;;;;;10314541;28;20127;-65
2021/06/15 19:25:58;;;;;;;3.42;1.00;;;;;;;;;;10319145;28;20071;-65
2021/06/15 19:30:56;;;;;;;4.17;0.93;;;;;;;;;;10307477;28;20430;-66
2021/06/15 19:35:56;;;;;;;4.15;1.02;;;;;;;;;;10299051;28;20291;-66
2021/06/15 19:40:53;;;;;;;5.32;1.10;;;;;;;;;;10280371;28;20095;-65
2021/06/15 19:45:52;;;;;;;2.78;1.15;;;;;;;;;;10300147;28;20034;-65
2021/06/15 19:50:54;;;;;;;2.40;0.80;;;;;;;;;;10263864;28;20124;-65
2021/06/15 19:55:52;;;;;;;3.05;1.08;;;;;;;;;;10284813;28;20500;-65
2021/06/15 20:00:49;;;;;;;3.75;1.10;;;;;;;;;;10281116;28;20041;-65
2021/06/15 20:05:47;;;;;;;;;;;;;;;;;;10296117;28;21100;-65
2021/06/15 20:10:44;;;;;;;3.35;0.93;;;;;;;;;;10268587;28;20433;-66
2021/06/15 20:15:42;;;;;;;2.80;0.87;;;;;;;;;;10262592;28;20516;-66
2021/06/15 20:20:39;;;;;;;;;;;;;;;;;;10247355;28;20272;-69
2021/06/15 20:25:36;;;;;;;2.60;0.90;;;;;;;;;;10276095;28;19913;-65
2021/06/15 20:30:38;;;;;;;;;;;;;;;;;;10256623;28;20507;-66
2021/06/15 20:35:39;;;;;;;2.78;0.90;;;;;;;;;;10290704;28;19920;-65
2021/06/15 20:40:37;;;;;;;6.70;1.38;;;;;;;;;;10277746;28;20801;-65
2021/06/15 20:45:35;;;;;;;3.45;1.02;;;;;;;;;;10249739;28;20060;-65
2021/06/15 20:50:33;;;;;;;5.65;1.10;;;;;;;;;;10264975;28;20053;-65
2021/06/15 20:55:30;;;;;;;3.67;1.13;;;;;;;;;;10282970;28;20034;-65
2021/06/15 21:00:29;;;;;;;2.53;1.02;;;;;;;;;;10280296;28;20952;-66
2021/06/15 21:05:26;;;;;;;3.13;0.80;;;;;;;;;;10260619;28;20053;-66
2021/06/15 21:10:24;;;;;;;2.93;0.93;;;;;;;;;;10272073;28;20049;-66
2021/06/15 21:15:21;;;;;;;2.83;0.90;;;;;;;;;;10283745;28;20021;-65
2021/06/15 21:20:19;;;;;;;2.37;0.80;;;;;;;;;;10308049;28;20790;-65
2021/06/15 21:25:16;;;;;;;2.43;0.83;;;;;;;;;;10316109;28;20286;-65
2021/06/15 21:30:15;;;;;;;3.80;1.30;;;;;;;;;;10277351;28;20606;-65
2021/06/15 21:35:13;;;;;;;3.40;0.90;;;;;;;;;;10264071;28;20036;-65
2021/06/15 21:40:11;;;;;;;3.20;1.00;;;;;;;;;;10267355;28;20040;-65
2021/06/15 21:45:09;;;;;;;2.35;0.90;;;;;;;;;;10285346;28;20014;-65
2021/06/15 21:50:07;;;;;;;2.50;0.90;;;;;;;;;;10284412;28;20116;-65
2021/06/15 21:55:04;;;;;;;;;;;;;;;;;;10286222;28;20089;-66
2021/06/15 22:00:05;;;;;;;2.63;0.95;;;;;;;;;;10281056;28;20261;-65
2021/06/15 22:05:03;;;;;;;3.00;0.90;;;;;;;;;;10337538;28;20517;-65
2021/06/15 22:10:01;;;;;;;1.97;1.00;;;;;;;;;;10328668;28;20384;-65
2021/06/15 22:14:58;;;;;;;2.67;1.00;;;;;;;;;;10322379;28;20059;-66
2021/06/15 22:19:56;;;;;;;2.25;1.10;;;;;;;;;;10320852;28;20291;-66
2021/06/15 22:24:54;;;;;;;3.70;0.90;;;;;;;;;;10346483;28;20040;-66
2021/06/15 22:29:51;;;;;;;6.00;1.30;;;;;;;;;;10318935;28;20628;-65
2021/06/15 22:34:48;;;;;;;1.73;0.97;;;;;;;;;;10323217;28;20543;-65
2021/06/15 22:39:46;;;;;;;4.40;0.83;;;;;;;;;;10287915;28;20063;-66
2021/06/15 22:44:43;;;;;;;4.23;1.10;;;;;;;;;;10290244;28;20030;-65
2021/06/15 22:49:41;;;;;;;2.73;1.23;;;;;;;;;;10278513;28;20499;-66
2021/06/15 22:54:38;;;;;;;2.33;1.43;;;;;;;;;;10330659;28;20045;-65
2021/06/15 22:59:36;;;;;;;3.03;1.10;;;;;;;;;;10332858;28;20052;-65
2021/06/15 23:04:34;;;;;;;2.95;1.27;;;;;;;;;;10296137;28;20117;-65
2021/06/15 23:09:31;;;;;;;1.83;0.70;;;;;;;;;;10309306;28;20237;-65
2021/06/15 23:14:29;;;;;;;3.83;0.73;;;;;;;;;;10326809;28;20041;-65
2021/06/15 23:19:26;;;;;;;2.37;1.03;;;;;;;;;;10322804;28;20048;-65
2021/06/15 23:24:23;;;;;;;1.80;1.00;;;;;;;;;;10311746;28;20201;-65
2021/06/15 23:29:23;;;;;;;2.63;0.83;;;;;;;;;;10318381;28;20041;-65
2021/06/15 23:34:21;;;;;;;2.58;0.95;;;;;;;;;;10335423;28;20029;-65
2021/06/15 23:39:18;;;;;;;1.48;0.73;;;;;;;;;;10325764;28;20131;-65
2021/06/15 23:44:16;;;;;;;1.60;0.90;;;;;;;;;;10332149;28;20116;-65
2021/06/15 23:49:13;;;;;;;3.83;0.80;;;;;;;;;;10327591;28;20036;-66
2021/06/15 23:54:11;;;;;;;1.87;1.00;;;;;;;;;;10327479;28;20047;-65
2021/06/15 23:59:09;;;;;;;1.97;1.07;;;;;;;;;;10323326;28;20060;-65
